SIA131 OMDB-WSSS
Flight info
| Callsign | SIA131 |
|---|---|
| Flight time | N/A |
| Altitude | 39000 |
| Route | IVURO M677 LALDO B505 NADSO A777 VAXIM P307 PARAR N571 GUNIP M630 NIREN Y511 TOPOR A464 ARAMA DCT TEBUN TEBUN1A |
| Aircraft | A333/H-SDE3GHIJ2J3J5M1RVWXY/LB2D1 |
Departure
| Time | 2026-04-25 18:47 |
|---|---|
| Airport | Dubai International Airport (OMDB) |
Arrival
| Time | N/A |
|---|---|
| Airport | Singapore Changi Airport (WSSS) |
| Time | Latitude | Longitude | Altitude | Speed | Heading |
|---|---|---|---|---|---|
| 2026-04-25 18:30 | 25.24276 | 55.37097 | 38 ft | 0 kts | 30° |
| 2026-04-25 18:37 | 25.24266 | 55.37090 | 57 ft | 2 kts | 31° |
| 2026-04-25 18:37 | 25.24252 | 55.37081 | 51 ft | 2 kts | 34° |
| 2026-04-25 18:38 | 25.24239 | 55.37070 | 36 ft | 2 kts | 38° |
| 2026-04-25 18:38 | 25.24227 | 55.37058 | 36 ft | 2 kts | 45° |
| 2026-04-25 18:38 | 25.24216 | 55.37044 | 33 ft | 2 kts | 62° |
| 2026-04-25 18:38 | 25.24211 | 55.37027 | 35 ft | 2 kts | 100° |
| 2026-04-25 18:39 | 25.24214 | 55.37015 | 33 ft | 1 kts | 121° |
| 2026-04-25 18:39 | 25.24215 | 55.37014 | 33 ft | 0 kts | 121° |
| 2026-04-25 18:42 | 25.24205 | 55.37032 | 35 ft | 5 kts | 121° |
| 2026-04-25 18:42 | 25.24188 | 55.37063 | 38 ft | 9 kts | 121° |
| 2026-04-25 18:42 | 25.24146 | 55.37140 | 39 ft | 9 kts | 121° |
| 2026-04-25 18:42 | 25.24113 | 55.37194 | 40 ft | 8 kts | 129° |
| 2026-04-25 18:43 | 25.24079 | 55.37244 | 41 ft | 8 kts | 127° |
| 2026-04-25 18:43 | 25.24048 | 55.37295 | 42 ft | 8 kts | 123° |
| 2026-04-25 18:43 | 25.24021 | 55.37345 | 42 ft | 7 kts | 119° |
| 2026-04-25 18:43 | 25.23992 | 55.37405 | 43 ft | 10 kts | 115° |
| 2026-04-25 18:44 | 25.23973 | 55.37491 | 44 ft | 13 kts | 91° |
| 2026-04-25 18:44 | 25.24007 | 55.37589 | 45 ft | 15 kts | 49° |
| 2026-04-25 18:44 | 25.24086 | 55.37653 | 45 ft | 15 kts | 34° |
| 2026-04-25 18:44 | 25.24180 | 55.37720 | 44 ft | 18 kts | 32° |
| 2026-04-25 18:45 | 25.24294 | 55.37792 | 42 ft | 21 kts | 31° |
| 2026-04-25 18:45 | 25.24437 | 55.37895 | 26 ft | 27 kts | 34° |
| 2026-04-25 18:45 | 25.24581 | 55.38004 | 31 ft | 23 kts | 34° |
| 2026-04-25 18:45 | 25.24678 | 55.38073 | 39 ft | 12 kts | 31° |
| 2026-04-25 18:46 | 25.24744 | 55.38100 | 40 ft | 10 kts | 357° |
| 2026-04-25 18:46 | 25.24791 | 55.38047 | 38 ft | 11 kts | 302° |
| 2026-04-25 18:46 | 25.24869 | 55.37906 | 37 ft | 44 kts | 301° |
| 2026-04-25 18:46 | 25.25137 | 55.37426 | 34 ft | 102 kts | 301° |
| 2026-04-25 18:47 | 25.25606 | 55.36582 | 22 ft | 154 kts | 302° |
| 2026-04-25 18:47 | 25.26248 | 55.35437 | 162 ft | 192 kts | 302° |
| 2026-04-25 18:47 | 25.27047 | 55.34117 | 448 ft | 217 kts | 307° |
| 2026-04-25 18:47 | 25.27970 | 55.32749 | 1044 ft | 228 kts | 306° |
| 2026-04-25 18:48 | 25.28953 | 55.31237 | 1296 ft | 260 kts | 305° |
| 2026-04-25 18:48 | 25.30222 | 55.29624 | 1413 ft | 295 kts | 318° |
| 2026-04-25 18:48 | 25.32053 | 55.28401 | 1618 ft | 318 kts | 340° |
| 2026-04-25 18:48 | 25.34145 | 55.28097 | 1925 ft | 293 kts | 1° |
| 2026-04-25 18:49 | 25.36025 | 55.28554 | 2446 ft | 262 kts | 15° |
| 2026-04-25 18:49 | 25.37731 | 55.29026 | 3143 ft | 246 kts | 9° |
| 2026-04-25 18:49 | 25.39351 | 55.29580 | 3871 ft | 246 kts | 22° |
| 2026-04-25 18:49 | 25.40876 | 55.30561 | 4279 ft | 263 kts | 37° |
| 2026-04-25 18:50 | 25.42060 | 55.32143 | 4770 ft | 275 kts | 63° |
| 2026-04-25 18:50 | 25.42411 | 55.34240 | 5362 ft | 283 kts | 90° |
| 2026-04-25 18:50 | 25.42244 | 55.36414 | 6024 ft | 285 kts | 95° |
| 2026-04-25 18:50 | 25.41983 | 55.38591 | 6678 ft | 287 kts | 96° |
| 2026-04-25 18:51 | 25.41709 | 55.40793 | 7317 ft | 290 kts | 96° |
| 2026-04-25 18:51 | 25.41531 | 55.42252 | 7741 ft | 291 kts | 97° |
| 2026-04-25 18:51 | 25.41171 | 55.45238 | 8638 ft | 294 kts | 97° |
| 2026-04-25 18:51 | 25.40903 | 55.47492 | 9325 ft | 297 kts | 97° |
| 2026-04-25 18:52 | 25.40633 | 55.49771 | 10006 ft | 300 kts | 98° |
| 2026-04-25 18:52 | 25.40358 | 55.52103 | 10373 ft | 314 kts | 98° |
| 2026-04-25 18:52 | 25.40067 | 55.54569 | 10619 ft | 332 kts | 98° |
| 2026-04-25 18:52 | 25.39760 | 55.57169 | 10855 ft | 349 kts | 98° |
| 2026-04-25 18:53 | 25.39439 | 55.59887 | 11089 ft | 364 kts | 98° |
| 2026-04-25 18:53 | 25.39104 | 55.62719 | 11332 ft | 378 kts | 98° |
| 2026-04-25 18:53 | 25.38758 | 55.65639 | 11697 ft | 387 kts | 98° |
| 2026-04-25 18:53 | 25.38407 | 55.68606 | 12200 ft | 391 kts | 98° |
| 2026-04-25 18:54 | 25.37693 | 55.74617 | 13285 ft | 398 kts | 98° |
| 2026-04-25 18:54 | 25.37331 | 55.77659 | 13819 ft | 401 kts | 98° |
| 2026-04-25 18:54 | 25.36965 | 55.80724 | 14306 ft | 403 kts | 98° |
| 2026-04-25 18:55 | 25.36596 | 55.83808 | 14800 ft | 406 kts | 98° |
| 2026-04-25 18:55 | 25.36223 | 55.86918 | 15244 ft | 410 kts | 99° |
| 2026-04-25 18:55 | 25.35846 | 55.90057 | 15673 ft | 414 kts | 99° |
| 2026-04-25 18:55 | 25.35465 | 55.93226 | 16115 ft | 418 kts | 99° |
| 2026-04-25 18:56 | 25.35079 | 55.96425 | 16553 ft | 421 kts | 99° |
| 2026-04-25 18:56 | 25.34690 | 55.99652 | 16989 ft | 425 kts | 99° |
| 2026-04-25 18:56 | 25.34297 | 56.02901 | 17412 ft | 429 kts | 99° |
| 2026-04-25 18:56 | 25.33900 | 56.06178 | 17823 ft | 432 kts | 99° |
| 2026-04-25 18:57 | 25.33498 | 56.09487 | 18227 ft | 436 kts | 99° |
| 2026-04-25 18:57 | 25.33093 | 56.12819 | 18579 ft | 439 kts | 99° |
| 2026-04-25 18:57 | 25.32701 | 56.16176 | 18913 ft | 443 kts | 98° |
| 2026-04-25 18:57 | 25.32478 | 56.18423 | 19143 ft | 445 kts | 97° |
| 2026-04-25 18:58 | 25.32088 | 56.22998 | 19608 ft | 449 kts | 96° |
| 2026-04-25 18:58 | 25.31547 | 56.29924 | 20309 ft | 455 kts | 96° |
| 2026-04-25 18:58 | 25.31270 | 56.33421 | 20606 ft | 459 kts | 96° |
| 2026-04-25 18:59 | 25.30721 | 56.40491 | 21291 ft | 465 kts | 94° |
| 2026-04-25 18:59 | 25.30447 | 56.47678 | 21941 ft | 471 kts | 92° |
| 2026-04-25 19:00 | 25.30280 | 56.54962 | 22583 ft | 477 kts | 92° |
| 2026-04-25 19:00 | 25.29969 | 56.58601 | 23020 ft | 476 kts | 100° |
| 2026-04-25 19:01 | 25.28087 | 56.65622 | 23706 ft | 479 kts | 112° |
| 2026-04-25 19:01 | 25.26864 | 56.69053 | 23988 ft | 481 kts | 114° |
| 2026-04-25 19:01 | 25.25565 | 56.72475 | 24297 ft | 483 kts | 114° |
| 2026-04-25 19:01 | 25.24237 | 56.75890 | 24600 ft | 486 kts | 115° |
| 2026-04-25 19:02 | 25.21561 | 56.82770 | 25208 ft | 490 kts | 115° |
| 2026-04-25 19:02 | 25.20226 | 56.86238 | 25507 ft | 492 kts | 114° |
| 2026-04-25 19:02 | 25.18890 | 56.89727 | 25793 ft | 494 kts | 114° |
| 2026-04-25 19:03 | 25.17120 | 56.94368 | 26195 ft | 497 kts | 114° |
| 2026-04-25 19:03 | 25.14867 | 57.00283 | 26715 ft | 499 kts | 114° |
| 2026-04-25 19:03 | 25.13522 | 57.03812 | 27151 ft | 498 kts | 114° |
| 2026-04-25 19:04 | 25.10819 | 57.10892 | 27691 ft | 503 kts | 114° |
| 2026-04-25 19:04 | 25.09454 | 57.14459 | 27928 ft | 506 kts | 114° |
| 2026-04-25 19:05 | 25.06700 | 57.21648 | 28471 ft | 511 kts | 114° |
| 2026-04-25 19:05 | 25.03921 | 57.28892 | 28994 ft | 515 kts | 115° |
| 2026-04-25 19:05 | 25.02522 | 57.32534 | 29272 ft | 517 kts | 115° |
| 2026-04-25 19:06 | 25.01119 | 57.36183 | 29626 ft | 516 kts | 115° |
| 2026-04-25 19:06 | 24.98322 | 57.43449 | 30350 ft | 513 kts | 115° |
| 2026-04-25 19:06 | 24.96947 | 57.47018 | 30693 ft | 512 kts | 115° |
| 2026-04-25 19:07 | 24.94159 | 57.54239 | 31229 ft | 513 kts | 115° |
| 2026-04-25 19:07 | 24.92760 | 57.57860 | 31523 ft | 513 kts | 115° |
| 2026-04-25 19:08 | 24.89961 | 57.65091 | 32115 ft | 513 kts | 115° |
| 2026-04-25 19:08 | 24.88561 | 57.68704 | 32404 ft | 513 kts | 115° |
| 2026-04-25 19:09 | 24.84339 | 57.79581 | 33280 ft | 513 kts | 115° |
| 2026-04-25 19:09 | 24.83407 | 57.81970 | 33452 ft | 513 kts | 115° |
| 2026-04-25 19:09 | 24.79888 | 57.90287 | 34045 ft | 513 kts | 117° |
| 2026-04-25 19:10 | 24.78349 | 57.93770 | 34254 ft | 513 kts | 117° |
| 2026-04-25 19:10 | 24.76783 | 57.97299 | 34443 ft | 514 kts | 117° |
| 2026-04-25 19:10 | 24.75197 | 58.00884 | 34676 ft | 514 kts | 116° |
| 2026-04-25 19:10 | 24.73637 | 58.04422 | 34884 ft | 514 kts | 116° |
| 2026-04-25 19:11 | 24.72079 | 58.07967 | 35101 ft | 514 kts | 116° |
| 2026-04-25 19:11 | 24.70526 | 58.11506 | 35321 ft | 514 kts | 116° |
| 2026-04-25 19:11 | 24.68974 | 58.15045 | 35510 ft | 514 kts | 116° |
| 2026-04-25 19:11 | 24.67440 | 58.18545 | 35698 ft | 515 kts | 116° |
| 2026-04-25 19:12 | 24.65865 | 58.22137 | 35896 ft | 515 kts | 116° |
| 2026-04-25 19:12 | 24.64329 | 58.25635 | 36095 ft | 515 kts | 116° |
| 2026-04-25 19:12 | 24.62774 | 58.29174 | 36292 ft | 515 kts | 116° |
| 2026-04-25 19:12 | 24.61215 | 58.32718 | 36463 ft | 515 kts | 116° |
| 2026-04-25 19:13 | 24.59654 | 58.36262 | 36655 ft | 515 kts | 116° |
| 2026-04-25 19:13 | 24.58095 | 58.39799 | 36828 ft | 515 kts | 116° |
| 2026-04-25 19:13 | 24.56532 | 58.43343 | 37018 ft | 515 kts | 116° |
| 2026-04-25 19:13 | 24.54969 | 58.46883 | 37190 ft | 515 kts | 115° |
| 2026-04-25 19:14 | 24.53407 | 58.50421 | 37433 ft | 514 kts | 115° |
| 2026-04-25 19:14 | 24.52880 | 58.51611 | 37535 ft | 513 kts | 115° |
| 2026-04-25 19:14 | 24.50294 | 58.57458 | 37847 ft | 512 kts | 115° |
| 2026-04-25 19:14 | 24.48738 | 58.60973 | 37995 ft | 513 kts | 115° |
| 2026-04-25 19:15 | 24.47177 | 58.64495 | 38125 ft | 513 kts | 115° |
| 2026-04-25 19:15 | 24.45615 | 58.68017 | 38263 ft | 513 kts | 115° |
| 2026-04-25 19:15 | 24.44052 | 58.71539 | 38412 ft | 513 kts | 115° |
| 2026-04-25 19:15 | 24.42488 | 58.75061 | 38556 ft | 513 kts | 115° |
| 2026-04-25 19:16 | 24.40925 | 58.78579 | 38680 ft | 513 kts | 115° |
| 2026-04-25 19:16 | 24.39359 | 58.82102 | 38828 ft | 513 kts | 115° |
| 2026-04-25 19:16 | 24.37797 | 58.85616 | 38873 ft | 513 kts | 115° |
| 2026-04-25 19:17 | 24.34676 | 58.92625 | 38872 ft | 511 kts | 115° |
| 2026-04-25 19:17 | 24.31558 | 58.99619 | 38873 ft | 510 kts | 115° |
| 2026-04-25 19:18 | 24.28437 | 59.06609 | 38873 ft | 509 kts | 115° |
| 2026-04-25 19:18 | 24.25331 | 59.13553 | 38878 ft | 507 kts | 115° |
| 2026-04-25 19:19 | 24.22231 | 59.20475 | 38872 ft | 506 kts | 115° |
| 2026-04-25 19:19 | 24.19124 | 59.27403 | 38875 ft | 506 kts | 115° |
| 2026-04-25 19:20 | 24.16015 | 59.34324 | 38874 ft | 506 kts | 115° |
| 2026-04-25 19:20 | 24.12913 | 59.41219 | 38869 ft | 504 kts | 115° |
| 2026-04-25 19:21 | 24.09819 | 59.48086 | 38875 ft | 503 kts | 115° |
| 2026-04-25 19:21 | 24.05169 | 59.58387 | 38875 ft | 503 kts | 115° |
| 2026-04-25 19:22 | 24.02476 | 59.64343 | 38878 ft | 502 kts | 115° |
| 2026-04-25 19:23 | 23.98367 | 59.73418 | 38870 ft | 500 kts | 115° |
| 2026-04-25 19:23 | 23.93732 | 59.83631 | 38877 ft | 500 kts | 115° |
| 2026-04-25 19:24 | 23.90643 | 59.90426 | 38873 ft | 499 kts | 115° |
| 2026-04-25 19:25 | 23.84492 | 60.03926 | 38873 ft | 495 kts | 115° |
| 2026-04-25 19:25 | 23.81427 | 60.10643 | 38873 ft | 493 kts | 115° |
| 2026-04-25 19:26 | 23.78372 | 60.17336 | 38875 ft | 492 kts | 115° |
| 2026-04-25 19:26 | 23.75347 | 60.24010 | 38871 ft | 489 kts | 115° |
| 2026-04-25 19:27 | 23.72840 | 60.29540 | 38877 ft | 488 kts | 115° |
| 2026-04-25 19:27 | 23.69304 | 60.37298 | 38876 ft | 488 kts | 115° |
| 2026-04-25 19:28 | 23.66282 | 60.43932 | 38872 ft | 488 kts | 115° |
| 2026-04-25 19:28 | 23.63270 | 60.50571 | 38873 ft | 488 kts | 115° |
| 2026-04-25 19:29 | 23.60276 | 60.57199 | 38873 ft | 487 kts | 115° |
| 2026-04-25 19:29 | 23.57289 | 60.63817 | 38876 ft | 487 kts | 115° |
| 2026-04-25 19:30 | 23.54295 | 60.70439 | 38870 ft | 487 kts | 115° |
| 2026-04-25 19:30 | 23.51292 | 60.77050 | 38880 ft | 487 kts | 115° |
| 2026-04-25 19:31 | 23.48316 | 60.83656 | 38879 ft | 485 kts | 115° |
| 2026-04-25 19:31 | 23.45349 | 60.90249 | 38875 ft | 485 kts | 115° |
| 2026-04-25 19:32 | 23.42382 | 60.96843 | 38876 ft | 485 kts | 115° |
| 2026-04-25 19:32 | 23.39918 | 61.02324 | 38881 ft | 485 kts | 115° |
| 2026-04-25 19:33 | 23.36468 | 61.10030 | 38879 ft | 484 kts | 115° |
| 2026-04-25 19:33 | 23.33523 | 61.16615 | 38873 ft | 483 kts | 115° |
| 2026-04-25 19:34 | 23.30577 | 61.23187 | 38879 ft | 483 kts | 115° |
| 2026-04-25 19:34 | 23.27631 | 61.29757 | 38881 ft | 483 kts | 115° |
| 2026-04-25 19:35 | 23.24688 | 61.36335 | 38876 ft | 483 kts | 115° |
| 2026-04-25 19:35 | 23.21775 | 61.42905 | 38875 ft | 482 kts | 115° |
| 2026-04-25 19:36 | 23.18863 | 61.49476 | 38879 ft | 482 kts | 115° |
| 2026-04-25 19:36 | 23.15953 | 61.56045 | 38875 ft | 482 kts | 115° |
| 2026-04-25 19:37 | 23.13032 | 61.62600 | 38876 ft | 482 kts | 115° |
| 2026-04-25 19:37 | 23.10109 | 61.69159 | 38877 ft | 482 kts | 115° |
| 2026-04-25 19:38 | 23.07208 | 61.75666 | 38874 ft | 482 kts | 115° |
| 2026-04-25 19:38 | 23.04270 | 61.82258 | 38883 ft | 482 kts | 115° |
| 2026-04-25 19:39 | 23.01370 | 61.88765 | 38880 ft | 482 kts | 115° |
| 2026-04-25 19:39 | 22.98439 | 61.95360 | 38877 ft | 482 kts | 115° |
| 2026-04-25 19:40 | 22.95562 | 62.01873 | 38880 ft | 482 kts | 115° |
| 2026-04-25 19:40 | 22.92640 | 62.08467 | 38875 ft | 482 kts | 115° |
| 2026-04-25 19:41 | 22.89737 | 62.15018 | 38877 ft | 482 kts | 115° |
| 2026-04-25 19:41 | 22.87817 | 62.19353 | 38881 ft | 482 kts | 115° |
| 2026-04-25 19:42 | 22.83970 | 62.28074 | 38874 ft | 482 kts | 115° |
| 2026-04-25 19:42 | 22.81094 | 62.34630 | 38878 ft | 481 kts | 115° |
| 2026-04-25 19:43 | 22.78223 | 62.41179 | 38878 ft | 481 kts | 115° |
| 2026-04-25 19:43 | 22.75349 | 62.47734 | 38879 ft | 481 kts | 115° |
| 2026-04-25 19:44 | 22.72478 | 62.54285 | 38879 ft | 481 kts | 115° |
| 2026-04-25 19:44 | 22.69611 | 62.60837 | 38879 ft | 481 kts | 115° |
| 2026-04-25 19:45 | 22.66743 | 62.67396 | 38876 ft | 482 kts | 115° |
| 2026-04-25 19:45 | 22.63880 | 62.73947 | 38881 ft | 482 kts | 115° |
| 2026-04-25 19:46 | 22.61015 | 62.80505 | 38880 ft | 482 kts | 115° |
| 2026-04-25 19:46 | 22.58157 | 62.87056 | 38881 ft | 481 kts | 114° |
| 2026-04-25 19:47 | 22.55393 | 62.93651 | 38878 ft | 481 kts | 112° |
| 2026-04-25 19:47 | 22.53060 | 63.00417 | 38873 ft | 480 kts | 108° |
| 2026-04-25 19:48 | 22.50920 | 63.07250 | 38877 ft | 480 kts | 108° |
| 2026-04-25 19:48 | 22.48785 | 63.14093 | 38874 ft | 480 kts | 108° |
| 2026-04-25 19:49 | 22.47361 | 63.18663 | 38883 ft | 479 kts | 108° |
| 2026-04-25 19:49 | 22.44468 | 63.27712 | 38879 ft | 478 kts | 111° |
| 2026-04-25 19:50 | 22.40259 | 63.37492 | 38881 ft | 479 kts | 116° |
| 2026-04-25 19:51 | 22.37193 | 63.43875 | 38877 ft | 479 kts | 117° |
| 2026-04-25 19:51 | 22.34104 | 63.50243 | 38878 ft | 478 kts | 117° |
| 2026-04-25 19:52 | 22.31038 | 63.56612 | 38874 ft | 478 kts | 117° |
| 2026-04-25 19:52 | 22.27983 | 63.62984 | 38876 ft | 478 kts | 117° |
| 2026-04-25 19:53 | 22.24931 | 63.69354 | 38878 ft | 478 kts | 117° |
| 2026-04-25 19:53 | 22.21874 | 63.75722 | 38879 ft | 478 kts | 117° |
| 2026-04-25 19:54 | 22.18817 | 63.82081 | 38880 ft | 478 kts | 117° |
| 2026-04-25 19:54 | 22.15753 | 63.88446 | 38877 ft | 478 kts | 117° |
| 2026-04-25 19:55 | 22.12691 | 63.94799 | 38883 ft | 478 kts | 117° |
| 2026-04-25 19:55 | 22.09625 | 64.01151 | 38881 ft | 478 kts | 117° |
| 2026-04-25 19:56 | 22.06553 | 64.07511 | 38877 ft | 478 kts | 117° |
| 2026-04-25 19:56 | 22.03480 | 64.13863 | 38877 ft | 478 kts | 117° |
| 2026-04-25 19:57 | 22.00405 | 64.20210 | 38878 ft | 478 kts | 117° |
| 2026-04-25 19:57 | 21.97349 | 64.26513 | 38882 ft | 478 kts | 117° |
| 2026-04-25 19:58 | 21.94248 | 64.32899 | 38877 ft | 478 kts | 117° |
| 2026-04-25 19:58 | 21.91187 | 64.39195 | 38881 ft | 477 kts | 117° |
| 2026-04-25 19:59 | 21.88109 | 64.45518 | 38884 ft | 477 kts | 117° |
| 2026-04-25 19:59 | 21.85033 | 64.51830 | 38876 ft | 476 kts | 117° |
| 2026-04-25 20:00 | 21.81949 | 64.58153 | 38879 ft | 477 kts | 117° |
| 2026-04-25 20:00 | 21.78868 | 64.64462 | 38886 ft | 477 kts | 117° |
| 2026-04-25 20:01 | 21.74235 | 64.73929 | 38882 ft | 476 kts | 117° |
| 2026-04-25 20:01 | 21.71147 | 64.80231 | 38877 ft | 477 kts | 117° |
| 2026-04-25 20:02 | 21.68055 | 64.86533 | 38883 ft | 476 kts | 117° |
| 2026-04-25 20:02 | 21.64960 | 64.92835 | 38884 ft | 476 kts | 116° |
| 2026-04-25 20:03 | 21.61866 | 64.99128 | 38883 ft | 476 kts | 116° |
| 2026-04-25 20:03 | 21.58768 | 65.05420 | 38886 ft | 476 kts | 117° |
| 2026-04-25 20:04 | 21.55669 | 65.11706 | 38880 ft | 476 kts | 117° |
| 2026-04-25 20:04 | 21.52569 | 65.17987 | 38884 ft | 476 kts | 117° |
| 2026-04-25 20:05 | 21.49991 | 65.23206 | 38884 ft | 476 kts | 117° |
| 2026-04-25 20:05 | 21.46363 | 65.30540 | 38883 ft | 476 kts | 117° |
| 2026-04-25 20:06 | 21.43780 | 65.35756 | 38879 ft | 476 kts | 117° |
| 2026-04-25 20:06 | 21.40675 | 65.42021 | 38883 ft | 476 kts | 117° |
| 2026-04-25 20:07 | 21.37565 | 65.48285 | 38878 ft | 475 kts | 117° |
| 2026-04-25 20:07 | 21.34454 | 65.54548 | 38883 ft | 476 kts | 117° |
| 2026-04-25 20:08 | 21.31342 | 65.60803 | 38883 ft | 475 kts | 118° |
| 2026-04-25 20:08 | 21.28224 | 65.67062 | 38878 ft | 475 kts | 118° |
| 2026-04-25 20:09 | 21.25090 | 65.73347 | 38873 ft | 475 kts | 118° |
| 2026-04-25 20:09 | 21.21987 | 65.79565 | 38883 ft | 477 kts | 118° |
| 2026-04-25 20:10 | 21.18833 | 65.85875 | 38884 ft | 478 kts | 118° |
| 2026-04-25 20:10 | 21.15716 | 65.92103 | 38877 ft | 477 kts | 118° |
| 2026-04-25 20:11 | 21.12576 | 65.98371 | 38879 ft | 477 kts | 118° |
| 2026-04-25 20:11 | 21.09558 | 66.04692 | 38876 ft | 477 kts | 116° |
| 2026-04-25 20:12 | 21.06673 | 66.11095 | 38879 ft | 477 kts | 116° |
| 2026-04-25 20:12 | 21.04267 | 66.16458 | 38875 ft | 477 kts | 116° |
| 2026-04-25 20:13 | 21.00907 | 66.23881 | 38877 ft | 477 kts | 116° |
| 2026-04-25 20:13 | 20.98002 | 66.30259 | 38876 ft | 476 kts | 116° |
| 2026-04-25 20:14 | 20.95100 | 66.36616 | 38877 ft | 475 kts | 116° |
| 2026-04-25 20:14 | 20.92197 | 66.42968 | 38876 ft | 475 kts | 116° |
| 2026-04-25 20:15 | 20.89292 | 66.49320 | 38870 ft | 476 kts | 116° |
| 2026-04-25 20:15 | 20.86384 | 66.55670 | 38870 ft | 475 kts | 116° |
| 2026-04-25 20:16 | 20.83495 | 66.61970 | 38872 ft | 474 kts | 116° |
| 2026-04-25 20:16 | 20.80595 | 66.68289 | 38877 ft | 473 kts | 116° |
| 2026-04-25 20:17 | 20.77695 | 66.74600 | 38873 ft | 474 kts | 116° |
| 2026-04-25 20:17 | 20.74786 | 66.80922 | 38878 ft | 475 kts | 116° |
| 2026-04-25 20:18 | 20.71872 | 66.87248 | 38875 ft | 474 kts | 116° |
| 2026-04-25 20:18 | 20.68956 | 66.93572 | 38877 ft | 475 kts | 116° |
| 2026-04-25 20:19 | 20.66030 | 66.99908 | 38870 ft | 475 kts | 116° |
| 2026-04-25 20:19 | 20.63104 | 67.06237 | 38876 ft | 475 kts | 116° |
| 2026-04-25 20:20 | 20.60180 | 67.12555 | 38878 ft | 475 kts | 116° |
| 2026-04-25 20:20 | 20.57248 | 67.18883 | 38869 ft | 475 kts | 116° |
| 2026-04-25 20:21 | 20.54311 | 67.25216 | 38872 ft | 477 kts | 117° |
| 2026-04-25 20:21 | 20.51368 | 67.31553 | 38871 ft | 477 kts | 117° |
| 2026-04-25 20:22 | 20.48916 | 67.36826 | 38866 ft | 478 kts | 116° |
| 2026-04-25 20:22 | 20.45467 | 67.44237 | 38869 ft | 477 kts | 117° |
| 2026-04-25 20:23 | 20.42508 | 67.50583 | 38870 ft | 477 kts | 117° |
| 2026-04-25 20:23 | 20.39552 | 67.56920 | 38874 ft | 478 kts | 117° |
| 2026-04-25 20:24 | 20.36590 | 67.63260 | 38869 ft | 478 kts | 117° |
| 2026-04-25 20:24 | 20.33625 | 67.69599 | 38868 ft | 478 kts | 117° |
| 2026-04-25 20:25 | 20.30655 | 67.75942 | 38864 ft | 478 kts | 117° |
| 2026-04-25 20:25 | 20.27679 | 67.82292 | 38867 ft | 480 kts | 117° |
| 2026-04-25 20:26 | 20.24691 | 67.88659 | 38864 ft | 481 kts | 117° |
| 2026-04-25 20:26 | 20.21700 | 67.95025 | 38853 ft | 481 kts | 117° |
| 2026-04-25 20:27 | 20.18706 | 68.01389 | 38867 ft | 481 kts | 117° |
| 2026-04-25 20:27 | 20.15694 | 68.07785 | 38867 ft | 480 kts | 117° |
| 2026-04-25 20:28 | 20.12717 | 68.14099 | 38867 ft | 480 kts | 117° |
| 2026-04-25 20:28 | 20.09716 | 68.20459 | 38861 ft | 481 kts | 118° |
| 2026-04-25 20:29 | 20.06713 | 68.26813 | 38860 ft | 482 kts | 118° |
| 2026-04-25 20:29 | 20.03699 | 68.33183 | 38858 ft | 483 kts | 118° |
| 2026-04-25 20:30 | 20.00679 | 68.39560 | 38862 ft | 483 kts | 118° |
| 2026-04-25 20:30 | 19.97652 | 68.45943 | 38863 ft | 483 kts | 118° |
| 2026-04-25 20:31 | 19.94625 | 68.52321 | 38859 ft | 483 kts | 118° |
| 2026-04-25 20:31 | 19.91592 | 68.58702 | 38862 ft | 484 kts | 118° |
| 2026-04-25 20:32 | 19.88557 | 68.65080 | 38862 ft | 484 kts | 118° |
| 2026-04-25 20:32 | 19.86035 | 68.70377 | 38858 ft | 484 kts | 118° |
| 2026-04-25 20:33 | 19.82478 | 68.77836 | 38856 ft | 484 kts | 118° |
| 2026-04-25 20:33 | 19.79952 | 68.83128 | 38858 ft | 484 kts | 118° |
| 2026-04-25 20:34 | 19.76392 | 68.90578 | 38854 ft | 484 kts | 119° |
| 2026-04-25 20:34 | 19.73344 | 68.96949 | 38856 ft | 484 kts | 119° |
| 2026-04-25 20:35 | 19.70294 | 69.03315 | 38856 ft | 484 kts | 119° |
| 2026-04-25 20:35 | 19.67242 | 69.09680 | 38860 ft | 484 kts | 119° |
| 2026-04-25 20:36 | 19.64189 | 69.16040 | 38848 ft | 484 kts | 119° |
| 2026-04-25 20:36 | 19.61131 | 69.22402 | 38851 ft | 484 kts | 119° |
| 2026-04-25 20:37 | 19.58074 | 69.28756 | 38854 ft | 484 kts | 119° |
| 2026-04-25 20:37 | 19.55020 | 69.35107 | 38850 ft | 483 kts | 119° |
| 2026-04-25 20:38 | 19.52054 | 69.41502 | 38851 ft | 483 kts | 118° |
| 2026-04-25 20:38 | 19.49133 | 69.47921 | 38843 ft | 483 kts | 118° |
| 2026-04-25 20:39 | 19.46209 | 69.54334 | 38847 ft | 483 kts | 118° |
| 2026-04-25 20:39 | 19.44247 | 69.58617 | 38841 ft | 483 kts | 118° |
| 2026-04-25 20:40 | 19.40336 | 69.67132 | 38845 ft | 483 kts | 118° |
| 2026-04-25 20:40 | 19.37395 | 69.73523 | 38845 ft | 483 kts | 118° |
| 2026-04-25 20:41 | 19.34452 | 69.79911 | 38842 ft | 483 kts | 118° |
| 2026-04-25 20:41 | 19.31507 | 69.86297 | 38834 ft | 483 kts | 118° |
| 2026-04-25 20:42 | 19.28561 | 69.92682 | 38841 ft | 481 kts | 119° |
| 2026-04-25 20:42 | 19.25624 | 69.99038 | 38836 ft | 481 kts | 119° |
| 2026-04-25 20:43 | 19.22680 | 70.05398 | 38834 ft | 481 kts | 119° |
| 2026-04-25 20:43 | 19.19736 | 70.11756 | 38828 ft | 481 kts | 119° |
| 2026-04-25 20:44 | 19.16793 | 70.18103 | 38832 ft | 481 kts | 119° |
| 2026-04-25 20:44 | 19.13843 | 70.24458 | 38830 ft | 481 kts | 119° |
| 2026-04-25 20:45 | 19.10889 | 70.30816 | 38828 ft | 481 kts | 119° |
| 2026-04-25 20:45 | 19.07935 | 70.37166 | 38826 ft | 481 kts | 119° |
| 2026-04-25 20:46 | 19.04979 | 70.43514 | 38821 ft | 481 kts | 119° |
| 2026-04-25 20:46 | 19.02018 | 70.49864 | 38828 ft | 481 kts | 119° |
| 2026-04-25 20:47 | 18.99557 | 70.55138 | 38825 ft | 482 kts | 120° |
| 2026-04-25 20:47 | 18.96592 | 70.61486 | 38826 ft | 482 kts | 120° |
| 2026-04-25 20:48 | 18.93623 | 70.67835 | 38824 ft | 482 kts | 120° |
| 2026-04-25 20:48 | 18.90651 | 70.74183 | 38825 ft | 482 kts | 120° |
| 2026-04-25 20:49 | 18.87677 | 70.80529 | 38822 ft | 482 kts | 120° |
| 2026-04-25 20:49 | 18.84702 | 70.86871 | 38817 ft | 482 kts | 120° |
| 2026-04-25 20:50 | 18.81723 | 70.93214 | 38817 ft | 482 kts | 120° |
| 2026-04-25 20:50 | 18.78744 | 70.99550 | 38813 ft | 482 kts | 120° |
| 2026-04-25 20:51 | 18.75757 | 71.05896 | 38818 ft | 483 kts | 120° |
| 2026-04-25 20:51 | 18.72767 | 71.12241 | 38817 ft | 483 kts | 120° |
| 2026-04-25 20:52 | 18.70283 | 71.17509 | 38815 ft | 483 kts | 120° |
| 2026-04-25 20:52 | 18.66780 | 71.24928 | 38815 ft | 483 kts | 120° |
| 2026-04-25 20:53 | 18.63787 | 71.31261 | 38813 ft | 483 kts | 120° |
| 2026-04-25 20:53 | 18.60788 | 71.37597 | 38812 ft | 483 kts | 120° |
| 2026-04-25 20:54 | 18.57790 | 71.43927 | 38812 ft | 483 kts | 120° |
| 2026-04-25 20:54 | 18.54808 | 71.50215 | 38812 ft | 483 kts | 120° |
| 2026-04-25 20:55 | 18.51804 | 71.56544 | 38805 ft | 483 kts | 121° |
| 2026-04-25 20:55 | 18.48802 | 71.62864 | 38810 ft | 482 kts | 121° |
| 2026-04-25 20:56 | 18.45801 | 71.69173 | 38813 ft | 482 kts | 121° |
| 2026-04-25 20:56 | 18.42796 | 71.75481 | 38813 ft | 482 kts | 121° |
| 2026-04-25 20:57 | 18.39790 | 71.81788 | 38809 ft | 482 kts | 121° |
| 2026-04-25 20:57 | 18.36782 | 71.88092 | 38810 ft | 482 kts | 121° |
| 2026-04-25 20:58 | 18.33774 | 71.94388 | 38809 ft | 482 kts | 121° |
| 2026-04-25 20:58 | 18.30764 | 72.00684 | 38810 ft | 481 kts | 121° |
| 2026-04-25 20:59 | 18.27752 | 72.06977 | 38810 ft | 481 kts | 121° |
| 2026-04-25 20:59 | 18.24740 | 72.13263 | 38809 ft | 481 kts | 122° |
| 2026-04-25 21:00 | 18.22732 | 72.17452 | 38813 ft | 479 kts | 122° |
| 2026-04-25 21:01 | 18.17219 | 72.28933 | 38812 ft | 479 kts | 122° |
| 2026-04-25 21:01 | 18.14232 | 72.35143 | 38812 ft | 479 kts | 122° |
| 2026-04-25 21:02 | 18.11223 | 72.41394 | 38811 ft | 479 kts | 122° |
| 2026-04-25 21:02 | 18.08212 | 72.47644 | 38811 ft | 479 kts | 122° |
| 2026-04-25 21:03 | 18.05200 | 72.53889 | 38812 ft | 479 kts | 122° |
| 2026-04-25 21:03 | 18.02183 | 72.60137 | 38812 ft | 479 kts | 122° |
| 2026-04-25 21:04 | 17.99162 | 72.66388 | 38813 ft | 480 kts | 122° |
| 2026-04-25 21:04 | 17.96138 | 72.72637 | 38813 ft | 480 kts | 122° |
| 2026-04-25 21:05 | 17.93110 | 72.78890 | 38813 ft | 480 kts | 122° |
| 2026-04-25 21:05 | 17.90082 | 72.85138 | 38808 ft | 480 kts | 123° |
| 2026-04-25 21:06 | 17.87049 | 72.91390 | 38809 ft | 480 kts | 123° |
| 2026-04-25 21:06 | 17.84016 | 72.97634 | 38808 ft | 480 kts | 123° |
| 2026-04-25 21:07 | 17.80979 | 73.03881 | 38823 ft | 480 kts | 123° |
| 2026-04-25 21:07 | 17.77941 | 73.10121 | 38811 ft | 481 kts | 123° |
| 2026-04-25 21:08 | 17.74898 | 73.16368 | 38808 ft | 480 kts | 123° |
| 2026-04-25 21:08 | 17.71855 | 73.22609 | 38807 ft | 480 kts | 123° |
| 2026-04-25 21:09 | 17.67290 | 73.31954 | 38821 ft | 480 kts | 123° |
| 2026-04-25 21:09 | 17.64237 | 73.38194 | 38836 ft | 481 kts | 123° |
| 2026-04-25 21:10 | 17.61181 | 73.44435 | 38831 ft | 481 kts | 123° |
| 2026-04-25 21:10 | 17.58127 | 73.50666 | 38834 ft | 481 kts | 123° |
| 2026-04-25 21:11 | 17.55066 | 73.56905 | 38848 ft | 481 kts | 123° |
| 2026-04-25 21:11 | 17.52007 | 73.63135 | 38846 ft | 481 kts | 123° |
| 2026-04-25 21:12 | 17.48940 | 73.69373 | 38849 ft | 482 kts | 123° |
| 2026-04-25 21:12 | 17.46389 | 73.74558 | 38857 ft | 482 kts | 123° |
| 2026-04-25 21:13 | 17.42794 | 73.81857 | 38870 ft | 482 kts | 123° |
| 2026-04-25 21:13 | 17.39716 | 73.88102 | 38868 ft | 482 kts | 123° |
| 2026-04-25 21:14 | 17.36637 | 73.94341 | 38877 ft | 482 kts | 123° |
| 2026-04-25 21:14 | 17.33564 | 74.00565 | 38865 ft | 482 kts | 123° |
| 2026-04-25 21:15 | 17.30480 | 74.06801 | 38872 ft | 482 kts | 123° |
| 2026-04-25 21:15 | 17.27397 | 74.13030 | 38872 ft | 482 kts | 123° |
| 2026-04-25 21:16 | 17.24327 | 74.19227 | 38873 ft | 483 kts | 123° |
| 2026-04-25 21:16 | 17.21218 | 74.25498 | 38868 ft | 483 kts | 123° |
| 2026-04-25 21:17 | 17.18129 | 74.31728 | 38868 ft | 482 kts | 123° |
| 2026-04-25 21:17 | 17.15037 | 74.37958 | 38864 ft | 483 kts | 123° |
| 2026-04-25 21:18 | 17.11945 | 74.44183 | 38861 ft | 483 kts | 123° |
| 2026-04-25 21:18 | 17.08852 | 74.50404 | 38866 ft | 482 kts | 123° |
| 2026-04-25 21:19 | 17.05760 | 74.56619 | 38869 ft | 482 kts | 123° |
| 2026-04-25 21:19 | 17.02667 | 74.62828 | 38867 ft | 482 kts | 123° |
| 2026-04-25 21:20 | 17.00620 | 74.66934 | 38858 ft | 482 kts | 123° |
| 2026-04-25 21:20 | 16.96480 | 74.75231 | 38861 ft | 481 kts | 123° |
| 2026-04-25 21:21 | 16.93381 | 74.81435 | 38856 ft | 481 kts | 123° |
| 2026-04-25 21:21 | 16.90284 | 74.87629 | 38855 ft | 481 kts | 123° |
| 2026-04-25 21:22 | 16.87186 | 74.93819 | 38855 ft | 481 kts | 123° |
| 2026-04-25 21:22 | 16.84104 | 74.99972 | 38855 ft | 481 kts | 123° |
| 2026-04-25 21:23 | 16.80981 | 75.06200 | 38856 ft | 481 kts | 123° |
| 2026-04-25 21:23 | 16.77895 | 75.12348 | 38852 ft | 482 kts | 123° |
| 2026-04-25 21:24 | 16.74782 | 75.18545 | 38851 ft | 482 kts | 123° |
| 2026-04-25 21:24 | 16.71645 | 75.24786 | 38846 ft | 482 kts | 123° |
| 2026-04-25 21:25 | 16.68527 | 75.30983 | 38850 ft | 482 kts | 123° |
| 2026-04-25 21:25 | 16.65407 | 75.37176 | 38845 ft | 482 kts | 123° |
| 2026-04-25 21:26 | 16.62285 | 75.43369 | 38838 ft | 482 kts | 123° |
| 2026-04-25 21:26 | 16.59217 | 75.49595 | 38843 ft | 484 kts | 121° |
| 2026-04-25 21:27 | 16.56293 | 75.55922 | 38832 ft | 485 kts | 121° |
| 2026-04-25 21:27 | 16.53881 | 75.61198 | 38825 ft | 485 kts | 121° |
| 2026-04-25 21:28 | 16.51421 | 75.66553 | 38828 ft | 483 kts | 121° |